createdAt,value
2022-08-24T00:02:18.038Z,101781.00
2022-08-24T00:05:22.293Z,101779.47
2022-08-24T00:08:28.099Z,101767.69
2022-08-24T00:11:31.683Z,101770.53
2022-08-24T00:14:36.273Z,101774.56
2022-08-24T00:17:40.577Z,101765.00
2022-08-24T00:20:45.333Z,101771.69
2022-08-24T00:23:50.457Z,101766.53
2022-08-24T00:26:55.211Z,101768.59
2022-08-24T00:29:59.042Z,101766.03
2022-08-24T00:33:03.570Z,101770.50
2022-08-24T00:36:08.232Z,101769.66
2022-08-24T00:39:13.755Z,101774.09
2022-08-24T00:42:17.372Z,101772.38
2022-08-24T00:45:22.204Z,101767.06
2022-08-24T00:48:34.883Z,101771.19
2022-08-24T00:51:55.653Z,101770.13
2022-08-24T00:55:08.519Z,101773.50
2022-08-24T00:58:20.516Z,101761.03
2022-08-24T01:01:25.169Z,101767.91
2022-08-24T01:04:39.929Z,101779.25
2022-08-24T01:07:44.179Z,101773.03
2022-08-24T01:10:56.759Z,101770.31
2022-08-24T01:14:02.141Z,101773.13
2022-08-24T01:17:23.383Z,101771.53
2022-08-24T01:20:27.107Z,101767.22
2022-08-24T01:23:41.144Z,101773.59
2022-08-24T01:26:48.932Z,101772.88
2022-08-24T01:29:54.851Z,101774.53
2022-08-24T01:33:01.872Z,101773.41
2022-08-24T01:36:16.045Z,101780.88
2022-08-24T01:39:26.307Z,101778.38
2022-08-24T01:42:30.450Z,101775.97
2022-08-24T01:45:34.652Z,101767.19
2022-08-24T01:48:38.464Z,101772.88
2022-08-24T01:51:43.320Z,101764.28
2022-08-24T01:54:49.448Z,101774.94
2022-08-24T01:57:53.196Z,101777.00
2022-08-24T02:00:57.035Z,101772.97
2022-08-24T02:04:04.897Z,101772.38
2022-08-24T02:07:09.560Z,101784.47
2022-08-24T02:10:16.558Z,101775.97
2022-08-24T02:13:20.222Z,101778.84
2022-08-24T02:16:24.282Z,101789.06
2022-08-24T02:19:28.350Z,101782.19
2022-08-24T02:22:32.001Z,101783.31
2022-08-24T02:25:37.085Z,101785.16
2022-08-24T02:28:42.572Z,101783.47
2022-08-24T02:31:46.415Z,101788.94
2022-08-24T02:34:50.074Z,101792.00
2022-08-24T02:37:59.198Z,101790.44
2022-08-24T02:41:04.256Z,101799.28
2022-08-24T02:44:08.051Z,101802.56
2022-08-24T02:47:11.975Z,101799.03
2022-08-24T02:50:18.953Z,101790.50
2022-08-24T02:53:23.667Z,101792.41
2022-08-24T02:56:31.128Z,101796.06
2022-08-24T02:59:34.763Z,101799.91
2022-08-24T03:02:38.580Z,101790.63
2022-08-24T03:05:42.308Z,101795.44
2022-08-24T03:08:46.398Z,101801.00
2022-08-24T03:11:56.307Z,101800.44
2022-08-24T03:14:59.911Z,101801.28
2022-08-24T03:18:03.726Z,101796.38
2022-08-24T03:21:07.767Z,101806.28
2022-08-24T03:24:11.672Z,101799.88
2022-08-24T03:27:16.659Z,101802.63
2022-08-24T03:30:20.383Z,101804.44
2022-08-24T03:33:25.751Z,101796.47
2022-08-24T03:36:29.369Z,101794.59
2022-08-24T03:39:33.335Z,101788.50
2022-08-24T03:42:38.339Z,101787.84
2022-08-24T03:45:43.789Z,101790.50
2022-08-24T03:48:49.104Z,101792.00
2022-08-24T03:51:53.095Z,101793.81
2022-08-24T03:54:56.854Z,101801.63
2022-08-24T03:58:01.947Z,101806.75
2022-08-24T04:01:07.360Z,101803.19
2022-08-24T04:04:11.863Z,101803.19
2022-08-24T04:07:15.546Z,101796.16
2022-08-24T04:10:19.337Z,101796.00
2022-08-24T04:13:25.231Z,101797.16
2022-08-24T04:16:30.688Z,101793.56
2022-08-24T04:19:35.874Z,101797.06
2022-08-24T04:22:39.791Z,101791.00
2022-08-24T04:25:45.318Z,101792.09
2022-08-24T04:28:54.231Z,101783.47
2022-08-24T04:31:59.022Z,101781.72
2022-08-24T04:35:03.572Z,101782.72
2022-08-24T04:38:08.295Z,101789.88
2022-08-24T04:41:14.368Z,101790.03
2022-08-24T04:44:20.293Z,101789.09
2022-08-24T04:47:24.340Z,101798.91
2022-08-24T04:50:27.975Z,101795.19
2022-08-24T04:53:31.886Z,101799.66
2022-08-24T04:56:36.248Z,101804.22
2022-08-24T04:59:41.304Z,101805.09
2022-08-24T05:02:45.357Z,101801.38
2022-08-24T05:05:52.274Z,101800.28
2022-08-24T05:08:56.865Z,101808.00
2022-08-24T05:12:01.412Z,101803.34
2022-08-24T05:15:08.174Z,101812.00
2022-08-24T05:18:12.444Z,101815.38
2022-08-24T05:21:19.434Z,101817.69
2022-08-24T05:24:25.212Z,101817.41
2022-08-24T05:27:28.861Z,101819.66
2022-08-24T05:30:34.530Z,101824.97
2022-08-24T05:33:38.580Z,101825.34
2022-08-24T05:36:43.229Z,101831.94
2022-08-24T05:39:47.008Z,101840.38
2022-08-24T05:42:51.771Z,101832.84
2022-08-24T05:45:57.235Z,101831.09
2022-08-24T05:49:02.482Z,101833.44
2022-08-24T05:52:06.704Z,101845.47
2022-08-24T05:55:11.447Z,101841.34
2022-08-24T05:58:18.544Z,101848.13
2022-08-24T06:01:33.482Z,101850.25
2022-08-24T06:04:38.289Z,101844.38
2022-08-24T06:07:42.146Z,101843.66
2022-08-24T06:10:48.915Z,101846.41
2022-08-24T06:13:56.298Z,101843.38
2022-08-24T06:17:06.338Z,101841.19
2022-08-24T06:20:11.881Z,101846.88
2022-08-24T06:23:15.486Z,101842.25
2022-08-24T06:26:38.741Z,101845.84
2022-08-24T06:29:42.444Z,101843.72
2022-08-24T06:32:47.927Z,101854.09
2022-08-24T06:35:51.555Z,101854.97
2022-08-24T06:38:55.154Z,101856.63
2022-08-24T06:42:00.238Z,101851.34
2022-08-24T06:45:04.203Z,101860.63
2022-08-24T06:48:09.754Z,101857.88
2022-08-24T06:51:20.109Z,101853.56
2022-08-24T06:54:23.746Z,101859.94
2022-08-24T06:57:27.358Z,101861.66
2022-08-24T07:00:31.858Z,101869.72
2022-08-24T07:03:37.034Z,101874.66
2022-08-24T07:06:40.821Z,101878.06
2022-08-24T07:09:44.472Z,101886.72
2022-08-24T07:12:48.149Z,101879.44
2022-08-24T07:15:54.308Z,101883.50
2022-08-24T07:18:59.630Z,101893.72
2022-08-24T07:22:03.546Z,101886.91
2022-08-24T07:25:09.099Z,101886.91
2022-08-24T07:28:13.799Z,101888.38
2022-08-24T07:31:18.186Z,101895.09
2022-08-24T07:34:23.192Z,101886.78
2022-08-24T07:37:40.711Z,101888.09
2022-08-24T07:41:14.471Z,101892.00
2022-08-24T07:44:15.708Z,101888.22
2022-08-24T07:47:39.030Z,101879.53
2022-08-24T07:50:45.470Z,101887.16
2022-08-24T07:53:54.053Z,101887.16
2022-08-24T07:57:02.232Z,101890.34
2022-08-24T08:00:08.677Z,101895.34
2022-08-24T08:03:12.347Z,101896.72
2022-08-24T08:06:19.186Z,101899.03
2022-08-24T08:09:23.149Z,101901.75
2022-08-24T08:12:26.775Z,101900.00
2022-08-24T08:15:39.588Z,101901.59
2022-08-24T08:18:43.503Z,101897.84
2022-08-24T08:22:09.623Z,101910.06
2022-08-24T08:25:14.332Z,101910.41
2022-08-24T08:28:25.367Z,101911.84
2022-08-24T08:31:30.048Z,101905.44
2022-08-24T08:34:37.915Z,101907.31
2022-08-24T08:37:43.565Z,101910.13
2022-08-24T08:41:04.628Z,101904.28
2022-08-24T08:44:21.162Z,101906.38
2022-08-24T08:47:55.061Z,101905.69
2022-08-24T08:51:45.495Z,101905.31
2022-08-24T08:55:06.370Z,101894.94
2022-08-24T08:58:32.971Z,101901.78
2022-08-24T09:01:51.659Z,101904.06
2022-08-24T09:05:36.579Z,101885.97
2022-08-24T09:09:10.877Z,101885.13
2022-08-24T09:12:27.343Z,101889.94
2022-08-24T09:15:57.656Z,101885.13
2022-08-24T09:19:31.820Z,101875.56
2022-08-24T09:22:40.909Z,101879.66
2022-08-24T09:25:59.329Z,101881.41
2022-08-24T09:29:16.504Z,101875.13
2022-08-24T09:32:53.031Z,101881.28
2022-08-24T09:36:15.623Z,101879.00
2022-08-24T09:39:39.306Z,101886.81
2022-08-24T09:43:36.687Z,101877.88
2022-08-24T09:48:07.113Z,101880.31
2022-08-24T09:52:21.567Z,101878.59
2022-08-24T09:56:14.606Z,101879.72
2022-08-24T09:59:47.600Z,101884.13
2022-08-24T10:03:04.076Z,101876.28
2022-08-24T10:06:33.302Z,101885.66
2022-08-24T10:10:04.612Z,101874.22
2022-08-24T10:13:27.476Z,101876.00
2022-08-24T10:17:01.730Z,101884.19
2022-08-24T10:20:23.907Z,101877.97
2022-08-24T10:23:55.084Z,101869.69
2022-08-24T10:27:21.332Z,101864.31
2022-08-24T10:31:12.533Z,101860.91
2022-08-24T10:34:40.282Z,101857.53
2022-08-24T10:38:26.231Z,101868.56
2022-08-24T10:42:36.392Z,101870.59
2022-08-24T10:46:38.371Z,101863.38
2022-08-24T10:50:23.598Z,101869.22
2022-08-24T10:53:36.135Z,101870.97
2022-08-24T10:56:44.511Z,101871.50
2022-08-24T11:00:01.784Z,101865.00
2022-08-24T11:03:12.122Z,101872.84
2022-08-24T11:06:20.463Z,101868.41
2022-08-24T11:09:24.038Z,101861.13
2022-08-24T11:12:33.071Z,101854.75
2022-08-24T11:15:48.736Z,101865.97
2022-08-24T11:18:55.921Z,101858.94
2022-08-24T11:22:04.075Z,101855.78
2022-08-24T11:25:17.968Z,101860.66
2022-08-24T11:28:33.353Z,101861.19
2022-08-24T11:31:43.209Z,101853.97
2022-08-24T11:34:49.818Z,101863.78
2022-08-24T11:37:59.306Z,101860.25
2022-08-24T11:41:12.822Z,101865.38
2022-08-24T11:44:35.030Z,101862.91
2022-08-24T11:48:00.440Z,101859.34
2022-08-24T11:51:13.155Z,101856.72
2022-08-24T11:54:34.596Z,101855.56
2022-08-24T11:57:47.515Z,101855.63
2022-08-24T12:01:03.401Z,101849.22
2022-08-24T12:04:32.097Z,101849.88
2022-08-24T12:07:51.686Z,101851.78
2022-08-24T12:11:07.306Z,101848.81
2022-08-24T12:14:24.016Z,101849.13
2022-08-24T12:17:38.406Z,101845.44
2022-08-24T12:20:48.314Z,101849.81
2022-08-24T12:24:00.253Z,101847.00
2022-08-24T12:27:13.369Z,101840.84
2022-08-24T12:30:19.267Z,101845.09
2022-08-24T12:33:33.271Z,101833.53
2022-08-24T12:36:57.400Z,101833.63
2022-08-24T12:40:13.563Z,101837.28
2022-08-24T12:43:26.476Z,101828.88
2022-08-24T12:46:31.303Z,101839.13
2022-08-24T12:49:49.278Z,101834.94
2022-08-24T12:53:40.319Z,101833.72
2022-08-24T12:57:51.808Z,101827.03
2022-08-24T13:01:06.323Z,101831.94
2022-08-24T13:04:31.555Z,101830.63
2022-08-24T13:07:43.688Z,101830.91
2022-08-24T13:11:06.065Z,101831.72
2022-08-24T13:14:22.420Z,101828.28
2022-08-24T13:17:43.114Z,101831.34
2022-08-24T13:20:57.125Z,101827.13
2022-08-24T13:24:50.314Z,101829.75
2022-08-24T13:28:33.953Z,101837.97
2022-08-24T13:31:43.476Z,101831.94
2022-08-24T13:34:51.749Z,101823.13
2022-08-24T13:38:51.643Z,101825.69
2022-08-24T13:42:14.072Z,101823.09
2022-08-24T13:45:27.631Z,101816.75
2022-08-24T13:48:53.914Z,101816.44
2022-08-24T13:52:16.725Z,101819.34
2022-08-24T13:55:49.823Z,101811.44
2022-08-24T13:59:06.818Z,101813.00
2022-08-24T14:02:32.448Z,101817.84
2022-08-24T14:05:46.553Z,101812.75
2022-08-24T14:09:04.276Z,101804.13
2022-08-24T14:13:00.074Z,101806.16
2022-08-24T14:16:45.225Z,101809.56
2022-08-24T14:20:00.877Z,101809.84
2022-08-24T14:23:23.175Z,101808.75
2022-08-24T14:27:08.224Z,101802.22
2022-08-24T14:30:46.862Z,101792.69
2022-08-24T14:34:15.348Z,101798.31
2022-08-24T14:37:30.629Z,101803.44
2022-08-24T14:40:39.815Z,101803.06
2022-08-24T14:44:42.996Z,101800.91
2022-08-24T14:48:04.959Z,101800.78
2022-08-24T14:51:30.273Z,101793.13
2022-08-24T14:54:49.757Z,101789.75
2022-08-24T14:58:11.254Z,101786.19
2022-08-24T15:01:43.746Z,101784.47
2022-08-24T15:04:52.255Z,101785.97
2022-08-24T15:08:01.161Z,101784.13
2022-08-24T15:11:13.046Z,101781.25
2022-08-24T15:14:33.636Z,101778.72
2022-08-24T15:17:59.933Z,101777.56
2022-08-24T15:21:21.715Z,101773.75
2022-08-24T15:24:40.697Z,101772.31
2022-08-24T15:27:53.799Z,101764.44
2022-08-24T15:31:01.810Z,101761.72
2022-08-24T15:34:06.980Z,101765.47
2022-08-24T15:37:12.355Z,101758.84
2022-08-24T15:40:29.499Z,101755.69
2022-08-24T15:43:35.184Z,101759.03
2022-08-24T15:46:44.715Z,101760.09
2022-08-24T15:49:55.351Z,101757.88
2022-08-24T15:53:03.180Z,101757.34
2022-08-24T15:56:29.952Z,101755.50
2022-08-24T15:59:49.135Z,101749.91
2022-08-24T16:02:51.743Z,101758.72
2022-08-24T16:06:18.131Z,101759.56
2022-08-24T16:09:38.775Z,101762.59
2022-08-24T16:12:42.523Z,101751.91
2022-08-24T16:15:54.689Z,101751.63
2022-08-24T16:19:02.240Z,101758.84
2022-08-24T16:22:14.467Z,101760.69
2022-08-24T16:25:26.511Z,101761.34
2022-08-24T16:28:38.998Z,101767.09
2022-08-24T16:31:52.923Z,101765.31
2022-08-24T16:35:17.501Z,101764.28
2022-08-24T16:38:22.478Z,101768.84
2022-08-24T16:41:27.595Z,101771.00
2022-08-24T16:44:38.785Z,101771.16
2022-08-24T16:47:42.470Z,101769.31
2022-08-24T16:50:50.521Z,101772.50
2022-08-24T16:53:56.428Z,101765.59
2022-08-24T16:57:04.082Z,101772.91
2022-08-24T17:00:12.610Z,101772.16
2022-08-24T17:03:16.432Z,101775.91
2022-08-24T17:06:21.529Z,101769.53
2022-08-24T17:09:26.865Z,101773.88
2022-08-24T17:12:31.487Z,101772.03
2022-08-24T17:15:36.903Z,101781.06
2022-08-24T17:18:41.642Z,101777.06
2022-08-24T17:21:45.702Z,101774.44
2022-08-24T17:24:52.002Z,101775.88
2022-08-24T17:27:56.324Z,101783.78
2022-08-24T17:31:01.399Z,101781.53
2022-08-24T17:34:06.511Z,101778.75
2022-08-24T17:37:11.796Z,101784.59
2022-08-24T17:40:19.752Z,101790.59
2022-08-24T17:43:24.929Z,101791.03
2022-08-24T17:46:29.581Z,101796.00
2022-08-24T17:49:34.635Z,101804.13
2022-08-24T17:52:38.901Z,101799.34
2022-08-24T17:55:44.101Z,101797.81
2022-08-24T17:59:01.789Z,101810.19
2022-08-24T18:02:09.961Z,101803.34
2022-08-24T18:05:14.964Z,101811.59
2022-08-24T18:08:18.681Z,101808.44
2022-08-24T18:11:25.985Z,101819.50
2022-08-24T18:14:31.490Z,101823.00
2022-08-24T18:17:40.976Z,101832.19
2022-08-24T18:20:44.699Z,101835.38
2022-08-24T18:23:49.555Z,101841.19
2022-08-24T18:26:54.545Z,101843.84
2022-08-24T18:30:03.309Z,101844.78
2022-08-24T18:33:09.195Z,101850.66
2022-08-24T18:36:13.431Z,101847.16
2022-08-24T18:39:17.215Z,101850.25
2022-08-24T18:42:28.543Z,101854.19
2022-08-24T18:45:53.035Z,101852.50
2022-08-24T18:48:57.055Z,101863.69
2022-08-24T18:52:01.647Z,101867.06
2022-08-24T18:55:08.832Z,101867.28
2022-08-24T18:58:14.311Z,101872.84
2022-08-24T19:01:18.616Z,101872.75
2022-08-24T19:04:29.505Z,101880.47
2022-08-24T19:07:40.922Z,101871.59
2022-08-24T19:10:46.360Z,101884.78
2022-08-24T19:13:51.575Z,101897.03
2022-08-24T19:16:55.375Z,101887.50
2022-08-24T19:19:59.630Z,101883.88
2022-08-24T19:23:10.819Z,101894.75
2022-08-24T19:26:14.562Z,101887.94
2022-08-24T19:29:38.865Z,101885.00
2022-08-24T19:32:45.008Z,101893.03
2022-08-24T19:35:48.825Z,101889.97
2022-08-24T19:38:52.955Z,101898.75
2022-08-24T19:41:57.020Z,101903.75
2022-08-24T19:45:19.885Z,101900.56
2022-08-24T19:48:24.970Z,101899.56
2022-08-24T19:51:29.004Z,101903.72
2022-08-24T19:54:37.687Z,101903.31
2022-08-24T19:57:55.224Z,101909.25
2022-08-24T20:01:06.285Z,101912.63
2022-08-24T20:04:09.976Z,101918.56
2022-08-24T20:07:18.866Z,101922.06
2022-08-24T20:10:25.640Z,101930.44
2022-08-24T20:13:29.733Z,101932.53
2022-08-24T20:16:42.056Z,101927.81
2022-08-24T20:19:46.054Z,101930.00
2022-08-24T20:22:50.022Z,101943.84
2022-08-24T20:25:54.644Z,101949.78
2022-08-24T20:28:59.776Z,101943.25
2022-08-24T20:32:05.067Z,101952.69
2022-08-24T20:35:10.392Z,101951.28
2022-08-24T20:38:19.381Z,101946.41
2022-08-24T20:41:23.217Z,101951.31
2022-08-24T20:44:26.890Z,101949.81
2022-08-24T20:47:32.011Z,101956.47
2022-08-24T20:50:35.663Z,101946.09
2022-08-24T20:53:39.370Z,101950.19
2022-08-24T20:56:45.702Z,101944.41
2022-08-24T20:59:49.344Z,101946.41
2022-08-24T21:02:54.589Z,101953.94
2022-08-24T21:05:59.175Z,101943.53
2022-08-24T21:09:04.923Z,101950.59
2022-08-24T21:12:09.730Z,101948.25
2022-08-24T21:15:14.390Z,101947.81
2022-08-24T21:18:20.496Z,101953.50
2022-08-24T21:21:24.751Z,101955.72
2022-08-24T21:24:28.629Z,101954.31
2022-08-24T21:27:35.208Z,101955.16
2022-08-24T21:30:38.827Z,101967.13
2022-08-24T21:34:01.375Z,101969.06
2022-08-24T21:37:07.348Z,101964.34
2022-08-24T21:40:13.190Z,101962.09
2022-08-24T21:43:19.919Z,101959.16
2022-08-24T21:46:29.238Z,101965.78
2022-08-24T21:49:35.215Z,101960.88
2022-08-24T21:52:39.070Z,101964.28
2022-08-24T21:55:43.913Z,101960.88
2022-08-24T21:58:47.638Z,101975.56
2022-08-24T22:01:51.409Z,101981.44
2022-08-24T22:04:56.973Z,101976.56
2022-08-24T22:08:00.638Z,101976.09
2022-08-24T22:11:04.715Z,101976.78
2022-08-24T22:14:08.375Z,101974.69
2022-08-24T22:17:12.354Z,101967.00
2022-08-24T22:20:23.195Z,101966.16
2022-08-24T22:23:27.668Z,101963.66
2022-08-24T22:26:31.491Z,101966.50
2022-08-24T22:29:35.483Z,101966.72
2022-08-24T22:32:39.696Z,101965.66
2022-08-24T22:35:46.408Z,101961.56
2022-08-24T22:38:50.451Z,101960.63
2022-08-24T22:41:54.111Z,101964.44
2022-08-24T22:44:58.662Z,101960.34
2022-08-24T22:48:02.322Z,101957.59
2022-08-24T22:51:12.453Z,101949.94
2022-08-24T22:54:17.382Z,101949.88
2022-08-24T22:57:20.975Z,101942.13
2022-08-24T23:00:24.879Z,101947.78
2022-08-24T23:03:28.908Z,101945.31
2022-08-24T23:06:34.342Z,101946.44
2022-08-24T23:09:44.018Z,101952.09
2022-08-24T23:12:49.149Z,101948.16
2022-08-24T23:15:53.899Z,101946.75
2022-08-24T23:19:15.222Z,101950.63
2022-08-24T23:22:21.748Z,101935.91
2022-08-24T23:25:26.260Z,101949.66
2022-08-24T23:28:31.505Z,101950.88
2022-08-24T23:31:35.605Z,101943.16
2022-08-24T23:34:39.772Z,101944.41
2022-08-24T23:37:44.888Z,101937.53
2022-08-24T23:40:48.786Z,101943.31
2022-08-24T23:43:52.785Z,101941.69
2022-08-24T23:46:57.650Z,101941.13
2022-08-24T23:50:01.277Z,101944.53
2022-08-24T23:53:06.216Z,101946.78
2022-08-24T23:56:14.278Z,101941.44
2022-08-24T23:59:22.985Z,101942.75
